SWR374P LSZH-LEAL
Flight info
| Callsign | SWR374P |
|---|---|
| Flight time | N/A |
| Altitude | 37000 |
| Route | VEBIT T50 ROTOS Z669 ULMES DCT VADAR DCT GEVEA DCT INCUS DCT BALSI DCT RETNO DCT TUPOX DCT MTG DCT DIVKO DCT VATIR DCT PIVUS DCT SULID DCT SISMO DCT AKAMU DCT ADX DCT OKITI DCT IBEBA M603 GERVU |
| Aircraft | A320/M-SDE3FGHIRWY/LB1 |
Departure
| Time | 2026-05-05 13:44 |
|---|---|
| Airport | Zürich Airport (LSZH) |
Arrival
| Time | N/A |
|---|---|
| Airport | Alicante-Elche Miguel Hernández Airport (LEAL) |
| Time | Latitude | Longitude | Altitude | Speed | Heading |
|---|---|---|---|---|---|
| 2026-05-05 13:19 | 47.45403 | 8.56117 | 1411 ft | 0 kts | 186° |
| 2026-05-05 13:35 | 47.45419 | 8.56119 | 1414 ft | 4 kts | 181° |
| 2026-05-05 13:35 | 47.45446 | 8.56118 | 1411 ft | 4 kts | 169° |
| 2026-05-05 13:36 | 47.45471 | 8.56106 | 1409 ft | 4 kts | 144° |
| 2026-05-05 13:36 | 47.45485 | 8.56080 | 1408 ft | 2 kts | 97° |
| 2026-05-05 13:36 | 47.45485 | 8.56078 | 1408 ft | 0 kts | 96° |
| 2026-05-05 13:38 | 47.45482 | 8.56113 | 1410 ft | 7 kts | 96° |
| 2026-05-05 13:39 | 47.45479 | 8.56155 | 1407 ft | 6 kts | 96° |
| 2026-05-05 13:40 | 47.45574 | 8.56773 | 1423 ft | 8 kts | 96° |
| 2026-05-05 13:41 | 47.45569 | 8.56842 | 1420 ft | 6 kts | 96° |
| 2026-05-05 13:41 | 47.45565 | 8.56899 | 1420 ft | 9 kts | 96° |
| 2026-05-05 13:41 | 47.45572 | 8.57002 | 1421 ft | 9 kts | 47° |
| 2026-05-05 13:41 | 47.45602 | 8.57018 | 1424 ft | 2 kts | 12° |
| 2026-05-05 13:42 | 47.45652 | 8.57018 | 1425 ft | 10 kts | 332° |
| 2026-05-05 13:42 | 47.45667 | 8.56963 | 1424 ft | 0 kts | 275° |
| 2026-05-05 13:43 | 47.45667 | 8.56956 | 1424 ft | 6 kts | 275° |
| 2026-05-05 13:44 | 47.45698 | 8.56513 | 1416 ft | 80 kts | 276° |
| 2026-05-05 13:44 | 47.45778 | 8.55387 | 1408 ft | 138 kts | 276° |
| 2026-05-05 13:44 | 47.45891 | 8.53775 | 1575 ft | 165 kts | 275° |
| 2026-05-05 13:44 | 47.46006 | 8.52135 | 2362 ft | 159 kts | 275° |
| 2026-05-05 13:45 | 47.46123 | 8.50516 | 3120 ft | 156 kts | 275° |
| 2026-05-05 13:45 | 47.46235 | 8.48873 | 3595 ft | 169 kts | 273° |
| 2026-05-05 13:45 | 47.45895 | 8.47149 | 3863 ft | 189 kts | 230° |
| 2026-05-05 13:45 | 47.44826 | 8.45886 | 4206 ft | 204 kts | 217° |
| 2026-05-05 13:46 | 47.43745 | 8.44454 | 4512 ft | 221 kts | 230° |
| 2026-05-05 13:46 | 47.42745 | 8.42575 | 4773 ft | 244 kts | 234° |
| 2026-05-05 13:46 | 47.41729 | 8.40458 | 5303 ft | 258 kts | 235° |
| 2026-05-05 13:46 | 47.40690 | 8.38265 | 6121 ft | 262 kts | 234° |
| 2026-05-05 13:47 | 47.39625 | 8.36055 | 6978 ft | 265 kts | 234° |
| 2026-05-05 13:47 | 47.38593 | 8.33791 | 7835 ft | 267 kts | 243° |
| 2026-05-05 13:47 | 47.37810 | 8.31297 | 8742 ft | 267 kts | 243° |
| 2026-05-05 13:47 | 47.36980 | 8.28854 | 9681 ft | 266 kts | 241° |
| 2026-05-05 13:48 | 47.36110 | 8.26414 | 10284 ft | 277 kts | 240° |
| 2026-05-05 13:48 | 47.35162 | 8.23807 | 10478 ft | 300 kts | 240° |
| 2026-05-05 13:48 | 47.34148 | 8.21016 | 10795 ft | 315 kts | 240° |
| 2026-05-05 13:48 | 47.33108 | 8.18136 | 11419 ft | 320 kts | 241° |
| 2026-05-05 13:49 | 47.32066 | 8.15227 | 12106 ft | 323 kts | 241° |
| 2026-05-05 13:49 | 47.31013 | 8.12273 | 12776 ft | 327 kts | 241° |
| 2026-05-05 13:49 | 47.29951 | 8.09286 | 13429 ft | 331 kts | 241° |
| 2026-05-05 13:49 | 47.28877 | 8.06262 | 14030 ft | 335 kts | 241° |
| 2026-05-05 13:50 | 47.27791 | 8.03209 | 14597 ft | 338 kts | 241° |
| 2026-05-05 13:50 | 47.26728 | 8.00125 | 15142 ft | 343 kts | 245° |
| 2026-05-05 13:50 | 47.25807 | 7.96819 | 15700 ft | 347 kts | 246° |
| 2026-05-05 13:50 | 47.24900 | 7.93555 | 16247 ft | 350 kts | 246° |
| 2026-05-05 13:51 | 47.23968 | 7.90222 | 16799 ft | 354 kts | 245° |
| 2026-05-05 13:51 | 47.23020 | 7.86857 | 17346 ft | 357 kts | 245° |
| 2026-05-05 13:51 | 47.22062 | 7.83467 | 17906 ft | 361 kts | 245° |
| 2026-05-05 13:51 | 47.21094 | 7.80045 | 18399 ft | 365 kts | 245° |
| 2026-05-05 13:52 | 47.20117 | 7.76584 | 18893 ft | 368 kts | 245° |
| 2026-05-05 13:52 | 47.19061 | 7.73132 | 19387 ft | 370 kts | 239° |
| 2026-05-05 13:52 | 47.17635 | 7.69981 | 19860 ft | 371 kts | 230° |
| 2026-05-05 13:52 | 47.16025 | 7.66995 | 20338 ft | 374 kts | 230° |
| 2026-05-05 13:53 | 47.14395 | 7.63983 | 20808 ft | 378 kts | 230° |
| 2026-05-05 13:53 | 47.12753 | 7.60948 | 21277 ft | 381 kts | 230° |
| 2026-05-05 13:53 | 47.11098 | 7.57896 | 21761 ft | 384 kts | 230° |
| 2026-05-05 13:53 | 47.09399 | 7.54857 | 22213 ft | 386 kts | 229° |
| 2026-05-05 13:54 | 47.07683 | 7.51874 | 22655 ft | 389 kts | 228° |
| 2026-05-05 13:54 | 47.05917 | 7.48849 | 23116 ft | 392 kts | 228° |
| 2026-05-05 13:54 | 47.04135 | 7.45815 | 23530 ft | 394 kts | 228° |
| 2026-05-05 13:54 | 47.02339 | 7.42760 | 23888 ft | 397 kts | 228° |
| 2026-05-05 13:55 | 47.00536 | 7.39681 | 24257 ft | 399 kts | 228° |
| 2026-05-05 13:55 | 46.98733 | 7.36586 | 24639 ft | 400 kts | 227° |
| 2026-05-05 13:55 | 46.96930 | 7.33481 | 24990 ft | 402 kts | 227° |
| 2026-05-05 13:55 | 46.95110 | 7.30348 | 25342 ft | 404 kts | 227° |
| 2026-05-05 13:56 | 46.93282 | 7.27207 | 25707 ft | 405 kts | 227° |
| 2026-05-05 13:56 | 46.91461 | 7.24081 | 26080 ft | 405 kts | 227° |
| 2026-05-05 13:56 | 46.89627 | 7.20934 | 26442 ft | 406 kts | 227° |
| 2026-05-05 13:56 | 46.87789 | 7.17787 | 26802 ft | 407 kts | 227° |
| 2026-05-05 13:57 | 46.85944 | 7.14636 | 27146 ft | 409 kts | 227° |
| 2026-05-05 13:57 | 46.84094 | 7.11482 | 27477 ft | 410 kts | 227° |
| 2026-05-05 13:57 | 46.82234 | 7.08315 | 27772 ft | 411 kts | 227° |
| 2026-05-05 13:57 | 46.80364 | 7.05142 | 28073 ft | 413 kts | 228° |
| 2026-05-05 13:58 | 46.78486 | 7.01957 | 28384 ft | 414 kts | 228° |
| 2026-05-05 13:58 | 46.76603 | 6.98761 | 28672 ft | 415 kts | 228° |
| 2026-05-05 13:58 | 46.74716 | 6.95563 | 28980 ft | 415 kts | 228° |
| 2026-05-05 13:58 | 46.72858 | 6.92416 | 29353 ft | 414 kts | 228° |
| 2026-05-05 13:59 | 46.69097 | 6.86047 | 29874 ft | 416 kts | 228° |
| 2026-05-05 13:59 | 46.67204 | 6.82853 | 30070 ft | 418 kts | 228° |
| 2026-05-05 14:00 | 46.63391 | 6.76438 | 30495 ft | 418 kts | 228° |
| 2026-05-05 14:00 | 46.62107 | 6.74280 | 30689 ft | 417 kts | 228° |
| 2026-05-05 14:00 | 46.60231 | 6.71131 | 30965 ft | 416 kts | 228° |
| 2026-05-05 14:00 | 46.57704 | 6.66891 | 31332 ft | 415 kts | 228° |
| 2026-05-05 14:01 | 46.56453 | 6.64793 | 31524 ft | 414 kts | 228° |
| 2026-05-05 14:01 | 46.54566 | 6.61628 | 31798 ft | 413 kts | 228° |
| 2026-05-05 14:01 | 46.52685 | 6.58476 | 32077 ft | 412 kts | 228° |
| 2026-05-05 14:01 | 46.50810 | 6.55332 | 32349 ft | 411 kts | 228° |
| 2026-05-05 14:02 | 46.49539 | 6.53207 | 32536 ft | 411 kts | 228° |
| 2026-05-05 14:02 | 46.47058 | 6.49075 | 32901 ft | 409 kts | 228° |
| 2026-05-05 14:02 | 46.45183 | 6.45958 | 33167 ft | 408 kts | 228° |
| 2026-05-05 14:02 | 46.43317 | 6.42860 | 33454 ft | 408 kts | 228° |
| 2026-05-05 14:03 | 46.41445 | 6.39750 | 33626 ft | 410 kts | 228° |
| 2026-05-05 14:03 | 46.39565 | 6.36636 | 33854 ft | 410 kts | 227° |
| 2026-05-05 14:03 | 46.37713 | 6.33575 | 34085 ft | 409 kts | 228° |
| 2026-05-05 14:03 | 46.35846 | 6.30485 | 34340 ft | 407 kts | 228° |
| 2026-05-05 14:04 | 46.33956 | 6.27356 | 34554 ft | 407 kts | 228° |
| 2026-05-05 14:04 | 46.32117 | 6.24315 | 34737 ft | 407 kts | 228° |
| 2026-05-05 14:04 | 46.30252 | 6.21233 | 34882 ft | 408 kts | 228° |
| 2026-05-05 14:04 | 46.28381 | 6.18150 | 34918 ft | 407 kts | 227° |
| 2026-05-05 14:05 | 46.24002 | 6.13051 | 34919 ft | 407 kts | 209° |
| 2026-05-05 14:05 | 46.18683 | 6.10208 | 34922 ft | 409 kts | 200° |
| 2026-05-05 14:06 | 46.13244 | 6.07787 | 34915 ft | 408 kts | 200° |
| 2026-05-05 14:06 | 46.07822 | 6.05369 | 34908 ft | 408 kts | 200° |
| 2026-05-05 14:07 | 46.02401 | 6.02938 | 34920 ft | 408 kts | 200° |
| 2026-05-05 14:07 | 45.97894 | 6.00926 | 34924 ft | 407 kts | 200° |
| 2026-05-05 14:08 | 45.94313 | 5.99338 | 34933 ft | 406 kts | 200° |